BGJN

Ilulissat Airport

Ilulissat, Greenland

BGJN 210950Z 03004KT 350V090 9999 OVC041 01/M04 Q1017

Observed Flight Rules
Sep-21 @ 09:50 UTC (24 minutes ago)
 
Visual Flight Rules
Wind Visibility Clouds
30° at 4 knots 10,000+ meters
  • Overcast at 4,100' AGL
Temperatures Readings
Current 1°C / 34°F
Dewpoint -4°C / 25°F
Humidity 70%
Altimeter 30.03" Hg
Pressure 1017 hPa
Elevation 25
Observed Flight Rules
Sep-21 @ 09:50 UTC
(24 minutes ago)
 
VFR
Wind Visibility
30° at 4 knots 10,000+ meters
Clouds
  • Overcast at 4,100' AGL
Temperature Dewpoint
1°C / 34°F -4°C / 25°F
Humidity Altimeter Pressure
70% 30.03" Hg 1017 hPa